Terminal Aerodrome Forecast
Issued by NWS Tampa Bay Area, FL

Home | Current Version | Previous Version | Text Only | Print | Product List | Glossary On
Versions: 1 2 3 4 5 6 7 8 9 10 11 12 13 14 15 16 17 18 19 20 21 22 23 24 25 26
000
FTUS42 KTBW 031128
TAFTPA
TAF
KTPA 031128Z 0312/0412 VRB05KT P6SM FEW250
     FM031600 24007KT P6SM VCTS SCT035CB SCT150
     FM032200 30007KT P6SM VCTS SCT045CB BKN200
     FM040100 VRB03KT P6SM FEW050 BKN250=

USA.gov is the U.S. government's official web portal to all federal, state and local government web resources and services.